createdAt,value
2018-12-26T00:00:51.249Z,93.10
2018-12-26T00:03:20.609Z,92.70
2018-12-26T00:05:50.219Z,93.00
2018-12-26T00:08:19.656Z,93.10
2018-12-26T00:10:49.046Z,93.20
2018-12-26T00:13:18.471Z,93.30
2018-12-26T00:15:47.916Z,93.30
2018-12-26T00:18:17.257Z,93.10
2018-12-26T00:20:46.763Z,93.20
2018-12-26T00:23:16.221Z,93.20
2018-12-26T00:25:45.591Z,93.00
2018-12-26T00:28:15.125Z,92.90
2018-12-26T00:30:44.572Z,93.00
2018-12-26T00:33:13.978Z,93.00
2018-12-26T00:35:43.382Z,92.90
2018-12-26T00:38:12.767Z,92.80
2018-12-26T00:40:42.128Z,92.80
2018-12-26T00:43:11.595Z,92.80
2018-12-26T00:45:41.913Z,93.00
2018-12-26T00:48:11.264Z,93.20
2018-12-26T00:50:40.670Z,93.20
2018-12-26T00:53:10.034Z,93.10
2018-12-26T00:55:39.363Z,93.20
2018-12-26T00:58:08.751Z,93.30
2018-12-26T01:00:38.095Z,93.20
2018-12-26T01:03:07.559Z,93.40
2018-12-26T01:05:37.039Z,93.70
2018-12-26T01:08:06.410Z,93.70
2018-12-26T01:10:35.844Z,93.80
2018-12-26T01:13:05.315Z,93.90
2018-12-26T01:15:34.679Z,93.60
2018-12-26T01:18:04.134Z,93.70
2018-12-26T01:20:33.631Z,93.60
2018-12-26T01:23:03.087Z,93.60
2018-12-26T01:25:32.514Z,93.90
2018-12-26T01:28:01.922Z,93.60
2018-12-26T01:30:31.438Z,93.60
2018-12-26T01:33:00.864Z,93.30
2018-12-26T01:35:30.397Z,93.00
2018-12-26T01:37:59.844Z,93.00
2018-12-26T01:40:29.194Z,93.20
2018-12-26T01:42:58.612Z,93.30
2018-12-26T01:45:27.980Z,93.20
2018-12-26T01:47:57.419Z,93.40
2018-12-26T01:50:26.943Z,93.50
2018-12-26T01:52:56.371Z,93.50
2018-12-26T01:55:25.800Z,93.60
2018-12-26T01:57:55.276Z,93.60
2018-12-26T02:00:24.656Z,93.40
2018-12-26T02:02:54.090Z,93.10
2018-12-26T02:05:23.620Z,93.10
2018-12-26T02:07:53.089Z,93.40
2018-12-26T02:10:22.502Z,93.50
2018-12-26T02:12:51.997Z,93.50
2018-12-26T02:15:21.433Z,93.20
2018-12-26T02:17:50.886Z,93.00
2018-12-26T02:20:20.537Z,93.10
2018-12-26T02:22:49.904Z,93.20
2018-12-26T02:25:19.348Z,93.20
2018-12-26T02:27:48.820Z,93.30
2018-12-26T02:30:18.185Z,93.20
2018-12-26T02:32:47.607Z,93.10
2018-12-26T02:35:17.042Z,92.90
2018-12-26T02:37:46.405Z,92.80
2018-12-26T02:40:15.980Z,92.70
2018-12-26T02:42:45.482Z,92.80
2018-12-26T02:45:14.904Z,92.70
2018-12-26T02:47:44.267Z,92.60
2018-12-26T02:50:13.745Z,92.50
2018-12-26T02:52:43.192Z,92.60
2018-12-26T02:55:12.628Z,92.50
2018-12-26T02:57:42.111Z,92.60
2018-12-26T03:00:11.558Z,92.70
2018-12-26T03:02:40.989Z,92.90
2018-12-26T03:05:10.467Z,93.10
2018-12-26T03:07:39.811Z,93.20
2018-12-26T03:10:09.182Z,93.20
2018-12-26T03:12:38.652Z,93.20
2018-12-26T03:15:08.484Z,93.30
2018-12-26T03:17:38.019Z,93.30
2018-12-26T03:20:07.513Z,93.30
2018-12-26T03:22:36.957Z,93.20
2018-12-26T03:25:06.456Z,93.20
2018-12-26T03:27:35.871Z,93.20
2018-12-26T03:30:05.604Z,93.30
2018-12-26T03:32:35.044Z,93.00
2018-12-26T03:35:04.693Z,92.90
2018-12-26T03:37:34.049Z,92.80
2018-12-26T03:40:03.384Z,92.80
2018-12-26T03:42:32.870Z,92.80
2018-12-26T03:45:03.988Z,92.70
2018-12-26T03:47:34.347Z,92.60
2018-12-26T03:50:03.867Z,92.50
2018-12-26T03:52:33.612Z,92.40
2018-12-26T03:55:03.074Z,92.10
2018-12-26T03:57:32.569Z,92.00
2018-12-26T04:00:01.970Z,92.00
2018-12-26T04:02:31.391Z,92.00
2018-12-26T04:05:00.977Z,92.00
2018-12-26T04:07:30.491Z,92.00
2018-12-26T04:09:59.861Z,91.90
2018-12-26T04:12:29.287Z,92.00
2018-12-26T04:14:58.730Z,91.80
2018-12-26T04:17:28.790Z,91.50
2018-12-26T04:19:58.819Z,91.30
2018-12-26T04:22:28.357Z,91.20
2018-12-26T04:24:57.775Z,91.00
2018-12-26T04:27:27.497Z,90.90
2018-12-26T04:29:56.864Z,90.80
2018-12-26T04:32:26.262Z,90.40
2018-12-26T04:34:55.756Z,90.40
2018-12-26T04:37:25.178Z,90.50
2018-12-26T04:39:54.534Z,90.60
2018-12-26T04:42:24.053Z,90.70
2018-12-26T04:44:53.777Z,90.80
2018-12-26T04:47:23.218Z,90.90
2018-12-26T04:49:52.710Z,90.80
2018-12-26T04:52:22.062Z,90.70
2018-12-26T04:54:51.390Z,90.50
2018-12-26T04:57:24.930Z,90.20
2018-12-26T04:59:51.963Z,90.10
2018-12-26T05:02:21.291Z,90.20
2018-12-26T05:04:50.694Z,90.40
2018-12-26T05:07:20.171Z,90.40
2018-12-26T05:09:49.855Z,90.30
2018-12-26T05:12:19.487Z,90.40
2018-12-26T05:14:48.882Z,90.50
2018-12-26T05:17:18.340Z,90.60
2018-12-26T05:19:47.751Z,90.70
2018-12-26T05:22:17.196Z,90.80
2018-12-26T05:24:46.896Z,91.20
2018-12-26T05:27:16.350Z,91.10
2018-12-26T05:29:45.761Z,90.80
2018-12-26T05:32:15.112Z,91.20
2018-12-26T05:34:44.507Z,91.20
2018-12-26T05:37:14.020Z,91.30
2018-12-26T05:39:43.458Z,91.30
2018-12-26T05:42:12.909Z,91.30
2018-12-26T05:44:42.254Z,91.40
2018-12-26T05:47:11.562Z,91.20
2018-12-26T05:49:40.951Z,91.10
2018-12-26T05:52:10.327Z,90.80
2018-12-26T05:54:39.765Z,90.30
2018-12-26T05:57:09.191Z,90.30
2018-12-26T05:59:38.554Z,90.20
2018-12-26T06:02:07.914Z,89.60
2018-12-26T06:04:37.318Z,90.00
2018-12-26T06:07:06.695Z,90.30
2018-12-26T06:09:36.144Z,91.20
2018-12-26T06:12:05.657Z,91.20
2018-12-26T06:14:35.110Z,91.20
2018-12-26T06:17:04.571Z,91.10
2018-12-26T06:19:34.054Z,90.80
2018-12-26T06:22:03.483Z,90.70
2018-12-26T06:24:32.924Z,90.60
2018-12-26T06:27:02.422Z,90.90
2018-12-26T06:29:31.816Z,91.30
2018-12-26T06:32:01.240Z,91.50
2018-12-26T06:34:30.716Z,91.60
2018-12-26T06:37:00.088Z,91.60
2018-12-26T06:39:29.482Z,91.50
2018-12-26T06:41:58.885Z,91.40
2018-12-26T06:44:28.270Z,91.50
2018-12-26T06:46:57.708Z,91.30
2018-12-26T06:49:27.176Z,91.30
2018-12-26T06:51:56.606Z,91.30
2018-12-26T06:54:25.957Z,91.30
2018-12-26T06:56:55.473Z,91.10
2018-12-26T06:59:24.835Z,90.50
2018-12-26T07:01:54.269Z,90.40
2018-12-26T07:04:23.650Z,90.40
2018-12-26T07:06:52.995Z,90.30
2018-12-26T07:09:22.449Z,90.10
2018-12-26T07:11:51.880Z,90.20
2018-12-26T07:14:21.340Z,90.20
2018-12-26T07:16:50.741Z,90.10
2018-12-26T07:19:20.215Z,90.20
2018-12-26T07:21:49.702Z,90.30
2018-12-26T07:24:19.083Z,90.30
2018-12-26T07:26:48.489Z,90.60
2018-12-26T07:29:17.836Z,90.90
2018-12-26T07:31:47.178Z,90.90
2018-12-26T07:34:16.714Z,90.70
2018-12-26T07:36:46.136Z,90.80
2018-12-26T07:39:15.510Z,90.80
2018-12-26T07:41:44.951Z,90.80
2018-12-26T07:44:14.302Z,90.80
2018-12-26T07:46:43.747Z,90.70
2018-12-26T07:49:13.246Z,90.50
2018-12-26T07:51:42.583Z,90.40
2018-12-26T07:54:11.993Z,90.50
2018-12-26T07:56:41.481Z,90.50
2018-12-26T07:59:10.857Z,90.50
2018-12-26T08:01:40.281Z,90.40
2018-12-26T08:04:09.756Z,90.20
2018-12-26T08:06:39.210Z,90.30
2018-12-26T08:09:10.444Z,90.40
2018-12-26T08:11:39.709Z,90.10
2018-12-26T08:14:09.227Z,90.10
2018-12-26T08:16:38.711Z,90.00
2018-12-26T08:19:08.187Z,89.90
2018-12-26T08:21:37.579Z,90.00
2018-12-26T08:24:06.992Z,89.30
2018-12-26T08:26:36.468Z,89.30
2018-12-26T08:29:05.898Z,88.60
2018-12-26T08:31:35.310Z,88.10
2018-12-26T08:34:04.720Z,88.10
2018-12-26T08:36:34.103Z,87.90
2018-12-26T08:39:03.951Z,88.30
2018-12-26T08:41:33.451Z,88.50
2018-12-26T08:44:02.805Z,88.30
2018-12-26T08:46:32.175Z,88.80
2018-12-26T08:49:01.679Z,89.90
2018-12-26T08:51:31.191Z,90.20
2018-12-26T08:54:00.844Z,90.60
2018-12-26T08:56:30.254Z,90.60
2018-12-26T08:58:59.595Z,90.80
2018-12-26T09:01:29.119Z,90.60
2018-12-26T09:03:58.590Z,90.90
2018-12-26T09:06:27.977Z,91.50
2018-12-26T09:08:57.334Z,91.80
2018-12-26T09:11:26.725Z,92.40
2018-12-26T09:13:56.067Z,92.40
2018-12-26T09:16:25.497Z,92.70
2018-12-26T09:18:54.909Z,92.80
2018-12-26T09:21:24.367Z,93.10
2018-12-26T09:23:53.730Z,93.10
2018-12-26T09:26:23.232Z,93.20
2018-12-26T09:28:52.677Z,93.30
2018-12-26T09:31:22.051Z,93.30
2018-12-26T09:33:51.576Z,93.20
2018-12-26T09:36:21.009Z,93.20
2018-12-26T09:38:50.462Z,93.40
2018-12-26T09:41:20.019Z,93.20
2018-12-26T09:43:49.376Z,92.80
2018-12-26T09:46:18.817Z,92.50
2018-12-26T09:48:51.295Z,92.20
2018-12-26T09:51:20.807Z,91.90
2018-12-26T09:53:50.196Z,91.40
2018-12-26T09:56:19.562Z,91.30
2018-12-26T09:58:52.637Z,91.20
2018-12-26T10:01:19.983Z,91.30
2018-12-26T10:03:49.402Z,91.70
2018-12-26T10:06:18.798Z,91.90
2018-12-26T10:08:48.146Z,92.10
2018-12-26T10:11:17.547Z,92.00
2018-12-26T10:13:46.927Z,92.00
2018-12-26T10:16:16.354Z,91.90
2018-12-26T10:18:45.780Z,91.80
2018-12-26T10:21:15.153Z,91.50
2018-12-26T10:23:44.613Z,91.00
2018-12-26T10:26:13.988Z,90.80
2018-12-26T10:28:43.355Z,90.10
2018-12-26T10:31:12.778Z,89.60
2018-12-26T10:33:42.220Z,90.10
2018-12-26T10:36:11.557Z,90.30
2018-12-26T10:38:40.940Z,90.40
2018-12-26T10:41:10.343Z,90.40
2018-12-26T10:43:39.637Z,90.40
2018-12-26T10:46:08.988Z,90.20
2018-12-26T10:48:38.475Z,90.20
2018-12-26T10:51:07.892Z,89.60
2018-12-26T10:53:37.262Z,89.60
2018-12-26T10:56:06.650Z,89.90
2018-12-26T10:58:36.231Z,89.20
2018-12-26T11:01:05.670Z,88.10
2018-12-26T11:03:35.113Z,88.70
2018-12-26T11:06:04.479Z,89.30
2018-12-26T11:08:33.895Z,89.20
2018-12-26T11:11:03.344Z,89.70
2018-12-26T11:13:32.877Z,90.00
2018-12-26T11:16:02.415Z,89.60
2018-12-26T11:18:31.899Z,89.60
2018-12-26T11:21:01.471Z,90.00
2018-12-26T11:23:30.892Z,89.30
2018-12-26T11:26:00.360Z,88.30
2018-12-26T11:28:29.773Z,88.60
2018-12-26T11:30:59.200Z,88.30
2018-12-26T11:33:31.879Z,88.90
2018-12-26T11:36:01.290Z,90.00
2018-12-26T11:38:30.709Z,90.20
2018-12-26T11:41:00.165Z,90.30
2018-12-26T11:43:29.486Z,90.30
2018-12-26T11:45:58.851Z,90.40
2018-12-26T11:48:28.345Z,90.30
2018-12-26T11:50:57.759Z,90.60
2018-12-26T11:53:27.172Z,90.70
2018-12-26T11:55:56.686Z,90.40
2018-12-26T11:58:26.137Z,90.40
2018-12-26T12:00:55.529Z,90.60
2018-12-26T12:03:24.960Z,90.60
2018-12-26T12:05:54.429Z,90.30
2018-12-26T12:08:23.830Z,90.60
2018-12-26T12:10:53.288Z,90.60
2018-12-26T12:13:22.759Z,90.40
2018-12-26T12:15:52.181Z,90.40
2018-12-26T12:18:21.597Z,90.60
2018-12-26T12:20:50.962Z,90.80
2018-12-26T12:23:20.400Z,90.90
2018-12-26T12:25:49.907Z,90.90
2018-12-26T12:28:19.327Z,90.90
2018-12-26T12:30:48.674Z,90.90
2018-12-26T12:33:18.114Z,90.80
2018-12-26T12:35:47.581Z,90.80
2018-12-26T12:38:17.028Z,90.70
2018-12-26T12:40:47.172Z,90.90
2018-12-26T12:43:16.694Z,90.90
2018-12-26T12:45:46.079Z,90.30
2018-12-26T12:48:15.907Z,90.20
2018-12-26T12:50:45.317Z,90.70
2018-12-26T12:53:14.651Z,90.60
2018-12-26T12:55:47.443Z,90.80
2018-12-26T12:58:17.817Z,91.00
2018-12-26T13:00:47.167Z,91.10
2018-12-26T13:03:16.580Z,91.40
2018-12-26T13:05:46.041Z,91.70
2018-12-26T13:08:15.520Z,91.90
2018-12-26T13:10:44.954Z,92.10
2018-12-26T13:13:14.312Z,92.00
2018-12-26T13:15:43.657Z,92.10
2018-12-26T13:18:13.053Z,92.10
2018-12-26T13:20:42.490Z,91.80
2018-12-26T13:23:11.941Z,91.80
2018-12-26T13:25:41.332Z,92.00
2018-12-26T13:28:10.734Z,92.00
2018-12-26T13:30:40.071Z,92.10
2018-12-26T13:33:09.499Z,91.80
2018-12-26T13:35:38.839Z,91.50
2018-12-26T13:38:08.205Z,91.30
2018-12-26T13:40:37.641Z,91.10
2018-12-26T13:43:07.052Z,91.10
2018-12-26T13:45:36.435Z,91.10
2018-12-26T13:48:05.921Z,91.10
2018-12-26T13:50:35.325Z,91.10
2018-12-26T13:53:04.750Z,91.20
2018-12-26T13:55:34.219Z,91.20
2018-12-26T13:58:03.608Z,91.20
2018-12-26T14:00:32.999Z,91.30
2018-12-26T14:03:02.755Z,91.40
2018-12-26T14:05:32.170Z,91.60
2018-12-26T14:08:01.609Z,91.60
2018-12-26T14:10:31.102Z,91.70
2018-12-26T14:13:00.457Z,91.70
2018-12-26T14:15:29.935Z,91.80
2018-12-26T14:17:59.419Z,91.70
2018-12-26T14:20:28.837Z,91.60
2018-12-26T14:22:58.211Z,91.60
2018-12-26T14:25:27.685Z,91.60
2018-12-26T14:27:57.105Z,91.40
2018-12-26T14:30:26.430Z,91.20
2018-12-26T14:32:55.905Z,91.00
2018-12-26T14:35:25.282Z,91.60
2018-12-26T14:37:54.723Z,91.60
2018-12-26T14:40:24.260Z,91.90
2018-12-26T14:42:55.726Z,92.10
2018-12-26T14:45:24.862Z,92.40
2018-12-26T14:47:54.332Z,92.80
2018-12-26T14:50:23.720Z,93.10
2018-12-26T14:52:53.772Z,93.00
2018-12-26T14:55:23.295Z,93.00
2018-12-26T14:57:52.755Z,92.70
2018-12-26T15:00:22.193Z,92.50
2018-12-26T15:02:51.663Z,92.50
2018-12-26T15:05:21.097Z,92.50
2018-12-26T15:07:50.449Z,92.40
2018-12-26T15:10:19.890Z,92.30
2018-12-26T15:12:49.281Z,92.20
2018-12-26T15:15:18.636Z,92.30
2018-12-26T15:17:48.030Z,92.60
2018-12-26T15:20:17.409Z,92.10
2018-12-26T15:22:46.750Z,91.90
2018-12-26T15:25:16.221Z,91.80
2018-12-26T15:27:45.606Z,91.90
2018-12-26T15:30:15.027Z,91.90
2018-12-26T15:32:44.447Z,91.80
2018-12-26T15:35:13.895Z,91.70
2018-12-26T15:37:43.332Z,91.80
2018-12-26T15:40:12.868Z,91.90
2018-12-26T15:42:42.293Z,91.90
2018-12-26T15:45:11.726Z,91.80
2018-12-26T15:47:41.169Z,91.80
2018-12-26T15:50:10.569Z,91.90
2018-12-26T15:52:39.975Z,91.90
2018-12-26T15:55:09.461Z,92.10
2018-12-26T15:57:38.879Z,92.20
2018-12-26T16:00:08.996Z,92.40
2018-12-26T16:02:38.481Z,92.30
2018-12-26T16:05:08.323Z,92.30
2018-12-26T16:07:37.772Z,92.30
2018-12-26T16:10:08.820Z,92.30
2018-12-26T16:12:38.259Z,92.40
2018-12-26T16:15:09.369Z,92.40
2018-12-26T16:17:38.769Z,92.20
2018-12-26T16:20:09.922Z,92.00
2018-12-26T16:22:39.777Z,91.90
2018-12-26T16:25:09.826Z,91.90
2018-12-26T16:27:39.274Z,92.40
2018-12-26T16:30:09.592Z,92.00
2018-12-26T16:32:39.157Z,91.90
2018-12-26T16:35:09.649Z,91.70
2018-12-26T16:37:39.125Z,92.40
2018-12-26T16:40:09.127Z,92.50
2018-12-26T16:42:38.472Z,92.90
2018-12-26T16:45:07.811Z,93.30
2018-12-26T16:47:37.210Z,93.30
2018-12-26T16:50:07.289Z,94.00
2018-12-26T16:52:36.776Z,93.90
2018-12-26T16:55:07.124Z,94.30
2018-12-26T16:57:36.557Z,94.40
2018-12-26T17:00:06.430Z,94.60
2018-12-26T17:02:35.983Z,94.60
2018-12-26T17:05:05.489Z,94.20
2018-12-26T17:07:34.955Z,94.40
2018-12-26T17:10:04.827Z,94.40
2018-12-26T17:12:34.285Z,94.40
2018-12-26T17:15:03.735Z,94.60
2018-12-26T17:17:33.173Z,94.70
2018-12-26T17:20:02.577Z,94.70
2018-12-26T17:22:32.154Z,94.80
2018-12-26T17:25:01.576Z,94.90
2018-12-26T17:27:30.937Z,94.80
2018-12-26T17:30:00.348Z,94.70
2018-12-26T17:32:29.789Z,94.80
2018-12-26T17:34:59.161Z,94.70
2018-12-26T17:37:28.466Z,94.50
2018-12-26T17:39:57.939Z,94.50
2018-12-26T17:42:27.479Z,94.50
2018-12-26T17:44:56.901Z,94.40
2018-12-26T17:47:26.340Z,94.50
2018-12-26T17:50:36.522Z,94.40
2018-12-26T17:53:06.003Z,94.20
2018-12-26T17:55:53.343Z,93.90
2018-12-26T17:58:22.779Z,93.70
2018-12-26T18:01:12.645Z,93.60
2018-12-26T18:03:35.248Z,93.50
2018-12-26T18:06:04.645Z,93.50
2018-12-26T18:08:34.012Z,93.20
2018-12-26T18:11:03.433Z,93.20
2018-12-26T18:13:32.928Z,93.10
2018-12-26T18:16:02.310Z,92.80
2018-12-26T18:18:31.805Z,92.70
2018-12-26T18:21:01.238Z,92.60
2018-12-26T18:23:30.554Z,92.50
2018-12-26T18:25:59.965Z,92.60
2018-12-26T18:28:29.294Z,92.60
2018-12-26T18:30:58.665Z,92.60
2018-12-26T18:33:28.179Z,92.60
2018-12-26T18:35:57.586Z,92.50
2018-12-26T18:38:26.961Z,92.60
2018-12-26T18:40:56.479Z,92.90
2018-12-26T18:43:25.955Z,92.90
2018-12-26T18:45:55.409Z,92.90
2018-12-26T18:48:24.986Z,92.90
2018-12-26T18:50:54.364Z,92.80
2018-12-26T18:53:23.801Z,92.70
2018-12-26T18:55:53.198Z,92.80
2018-12-26T18:58:22.631Z,92.80
2018-12-26T19:00:52.057Z,92.80
2018-12-26T19:03:21.681Z,92.80
2018-12-26T19:05:51.065Z,92.80
2018-12-26T19:08:20.468Z,92.70
2018-12-26T19:10:49.877Z,92.40
2018-12-26T19:13:19.219Z,92.20
2018-12-26T19:15:48.643Z,92.10
2018-12-26T19:18:21.422Z,92.00
2018-12-26T19:20:50.772Z,92.00
2018-12-26T19:23:20.118Z,92.00
2018-12-26T19:25:49.625Z,92.10
2018-12-26T19:28:18.977Z,92.10
2018-12-26T19:30:48.435Z,92.40
2018-12-26T19:33:17.833Z,92.10
2018-12-26T19:35:47.262Z,91.80
2018-12-26T19:38:16.679Z,91.60
2018-12-26T19:40:46.169Z,91.90
2018-12-26T19:43:15.529Z,92.10
2018-12-26T19:45:44.907Z,92.20
2018-12-26T19:48:14.402Z,92.20
2018-12-26T19:50:43.754Z,92.30
2018-12-26T19:53:14.977Z,92.40
2018-12-26T19:55:44.415Z,92.40
2018-12-26T19:58:14.029Z,92.50
2018-12-26T20:00:43.385Z,92.40
2018-12-26T20:03:13.261Z,92.40
2018-12-26T20:05:42.807Z,92.30
2018-12-26T20:08:12.271Z,92.10
2018-12-26T20:10:41.749Z,91.80
2018-12-26T20:13:11.098Z,91.70
2018-12-26T20:15:40.472Z,91.50
2018-12-26T20:18:09.944Z,91.40
2018-12-26T20:20:39.286Z,91.10
2018-12-26T20:23:08.724Z,91.10
2018-12-26T20:25:38.253Z,91.20
2018-12-26T20:28:07.673Z,91.00
2018-12-26T20:30:37.024Z,91.10
2018-12-26T20:33:06.511Z,91.00
2018-12-26T20:35:35.934Z,91.10
2018-12-26T20:38:05.321Z,91.30
2018-12-26T20:40:34.706Z,91.40
2018-12-26T20:43:04.081Z,91.40
2018-12-26T20:45:33.433Z,91.50
2018-12-26T20:48:02.928Z,91.70
2018-12-26T20:50:32.297Z,91.80
2018-12-26T20:53:01.754Z,91.80
2018-12-26T20:55:31.246Z,91.80
2018-12-26T20:58:00.650Z,91.80
2018-12-26T21:00:30.038Z,91.80
2018-12-26T21:02:59.503Z,91.80
2018-12-26T21:05:28.917Z,91.50
2018-12-26T21:08:01.344Z,91.60
2018-12-26T21:10:30.702Z,91.50
2018-12-26T21:13:00.100Z,91.60
2018-12-26T21:15:29.599Z,91.50
2018-12-26T21:17:59.073Z,91.40
2018-12-26T21:20:28.501Z,91.30
2018-12-26T21:22:57.863Z,91.20
2018-12-26T21:25:30.474Z,91.00
2018-12-26T21:27:59.930Z,90.90
2018-12-26T21:30:29.364Z,90.70
2018-12-26T21:32:58.875Z,90.70
2018-12-26T21:35:28.301Z,90.60
2018-12-26T21:37:57.640Z,90.50
2018-12-26T21:40:27.098Z,90.50
2018-12-26T21:42:56.549Z,90.30
2018-12-26T21:45:26.001Z,90.40
2018-12-26T21:47:55.512Z,90.60
2018-12-26T21:50:24.873Z,90.90
2018-12-26T21:52:55.668Z,90.50
2018-12-26T21:55:25.458Z,90.40
2018-12-26T21:57:54.892Z,90.40
2018-12-26T22:00:24.342Z,90.40
2018-12-26T22:02:57.024Z,90.30
2018-12-26T22:05:26.402Z,90.40
2018-12-26T22:07:55.846Z,90.40
2018-12-26T22:10:26.227Z,90.30
2018-12-26T22:12:55.601Z,90.20
2018-12-26T22:15:25.032Z,90.10
2018-12-26T22:17:54.582Z,90.00
2018-12-26T22:20:24.001Z,90.00
2018-12-26T22:22:53.436Z,90.30
2018-12-26T22:25:22.819Z,90.20
2018-12-26T22:27:52.207Z,90.60
2018-12-26T22:30:21.626Z,91.00
2018-12-26T22:32:51.120Z,91.20
2018-12-26T22:35:20.501Z,91.30
2018-12-26T22:37:49.892Z,91.50
2018-12-26T22:40:19.340Z,91.60
2018-12-26T22:42:48.731Z,91.60
2018-12-26T22:45:18.068Z,91.30
2018-12-26T22:47:47.438Z,91.10
2018-12-26T22:50:16.780Z,91.00
2018-12-26T22:52:46.212Z,90.80
2018-12-26T22:55:15.770Z,90.90
2018-12-26T22:57:45.174Z,90.40
2018-12-26T23:00:16.145Z,90.30
2018-12-26T23:02:45.621Z,90.40
2018-12-26T23:05:15.032Z,90.30
2018-12-26T23:07:44.368Z,90.10
2018-12-26T23:10:13.823Z,90.20
2018-12-26T23:12:43.289Z,90.10
2018-12-26T23:15:12.721Z,90.20
2018-12-26T23:17:42.183Z,90.30
2018-12-26T23:20:11.655Z,90.20
2018-12-26T23:22:41.092Z,90.20
2018-12-26T23:25:10.496Z,90.20
2018-12-26T23:27:39.830Z,90.30
2018-12-26T23:30:09.295Z,90.70
2018-12-26T23:32:46.783Z,91.30
2018-12-26T23:35:09.841Z,91.40
2018-12-26T23:37:39.219Z,91.30
2018-12-26T23:40:08.674Z,91.00
2018-12-26T23:42:38.039Z,90.90
2018-12-26T23:45:07.561Z,91.10
2018-12-26T23:47:36.991Z,91.20
2018-12-26T23:50:06.921Z,91.20
2018-12-26T23:52:36.622Z,91.10
2018-12-26T23:55:06.132Z,91.10
2018-12-26T23:57:35.790Z,91.10
